createdAt,value
2017-04-08T00:00:33.383Z,30.50
2017-04-08T00:01:33.749Z,33.72
2017-04-08T00:02:33.735Z,33.28
2017-04-08T00:03:33.760Z,31.17
2017-04-08T00:04:33.827Z,30.07
2017-04-08T00:05:33.639Z,31.20
2017-04-08T00:06:33.980Z,33.78
2017-04-08T00:07:33.950Z,30.77
2017-04-08T00:08:34.001Z,29.87
2017-04-08T00:09:34.026Z,33.60
2017-04-08T00:10:34.744Z,32.03
2017-04-08T00:11:35.875Z,32.40
2017-04-08T00:12:35.864Z,31.95
2017-04-08T00:13:35.788Z,33.70
2017-04-08T00:14:35.602Z,32.42
2017-04-08T00:15:35.595Z,33.97
2017-04-08T00:16:37.149Z,31.15
2017-04-08T00:17:37.205Z,30.38
2017-04-08T00:18:37.272Z,32.28
2017-04-08T00:19:37.251Z,33.25
2017-04-08T00:20:37.997Z,32.42
2017-04-08T00:21:38.988Z,30.93
2017-04-08T00:22:38.988Z,31.98
2017-04-08T00:23:39.056Z,30.75
2017-04-08T00:24:39.367Z,30.18
2017-04-08T00:25:39.351Z,32.92
2017-04-08T00:26:40.456Z,32.88
2017-04-08T00:27:40.458Z,33.95
2017-04-08T00:28:40.435Z,29.30
2017-04-08T00:29:40.426Z,32.80
2017-04-08T00:30:40.390Z,32.17
2017-04-08T00:31:40.685Z,34.20
2017-04-08T00:32:40.652Z,31.82
2017-04-08T00:33:40.662Z,31.02
2017-04-08T00:34:40.642Z,32.30
2017-04-08T00:35:41.640Z,30.38
2017-04-08T00:36:41.945Z,31.08
2017-04-08T00:37:42.034Z,30.50
2017-04-08T00:38:41.990Z,31.85
2017-04-08T00:39:42.686Z,31.93
2017-04-08T00:40:42.649Z,32.03
2017-04-08T00:41:42.906Z,30.37
2017-04-08T00:42:42.981Z,30.33
2017-04-08T00:43:42.960Z,31.25
2017-04-08T00:44:43.010Z,31.77
2017-04-08T00:45:42.974Z,32.97
2017-04-08T00:46:43.091Z,32.87
2017-04-08T00:47:43.177Z,30.93
2017-04-08T00:48:43.104Z,29.75
2017-04-08T00:49:42.813Z,31.43
2017-04-08T00:50:42.824Z,31.98
2017-04-08T00:51:42.901Z,30.87
2017-04-08T00:52:42.877Z,34.12
2017-04-08T00:53:42.834Z,31.68
2017-04-08T00:54:42.790Z,33.92
2017-04-08T00:55:42.801Z,33.35
2017-04-08T00:56:43.553Z,33.30
2017-04-08T00:57:43.823Z,32.27
2017-04-08T00:58:43.781Z,30.75
2017-04-08T00:59:43.819Z,33.03
2017-04-08T01:01:51.933Z,30.37
2017-04-08T01:02:52.291Z,30.48
2017-04-08T01:03:52.316Z,31.87
2017-04-08T01:04:52.280Z,33.17
2017-04-08T01:05:53.076Z,31.85
2017-04-08T01:06:53.985Z,31.07
2017-04-08T01:07:54.412Z,32.62
2017-04-08T01:08:54.449Z,32.98
2017-04-08T01:09:54.490Z,34.55
2017-04-08T01:10:54.637Z,33.87
2017-04-08T01:11:54.624Z,32.13
2017-04-08T01:12:54.978Z,32.03
2017-04-08T01:13:55.101Z,32.50
2017-04-08T01:14:55.918Z,32.03
2017-04-08T01:15:56.650Z,32.67
2017-04-08T01:16:56.355Z,32.98
2017-04-08T01:17:56.461Z,34.70
2017-04-08T01:18:56.418Z,32.62
2017-04-08T01:19:56.400Z,33.27
2017-04-08T01:20:56.688Z,35.63
2017-04-08T01:21:57.502Z,33.72
2017-04-08T01:22:58.608Z,34.07
2017-04-08T01:23:58.576Z,33.63
2017-04-08T01:24:59.821Z,35.70
2017-04-08T01:25:59.492Z,34.25
2017-04-08T01:26:59.523Z,35.40
2017-04-08T01:28:00.189Z,34.95
2017-04-08T01:29:00.151Z,32.22
2017-04-08T01:30:00.132Z,35.50
2017-04-08T01:31:00.135Z,33.27
2017-04-08T01:32:00.055Z,36.38
2017-04-08T01:33:00.501Z,35.05
2017-04-08T01:34:00.475Z,35.68
2017-04-08T01:35:00.520Z,33.83
2017-04-08T01:36:00.360Z,34.65
2017-04-08T01:37:01.057Z,34.93
2017-04-08T01:38:01.307Z,34.23
2017-04-08T01:39:01.337Z,35.43
2017-04-08T01:40:01.361Z,35.38
2017-04-08T01:41:01.356Z,34.52
2017-04-08T01:42:01.335Z,32.02
2017-04-08T01:43:01.696Z,33.32
2017-04-08T01:44:01.715Z,34.95
2017-04-08T01:45:01.700Z,32.77
2017-04-08T01:46:01.751Z,35.65
2017-04-08T01:47:01.657Z,33.85
2017-04-08T01:48:02.482Z,34.03
2017-04-08T01:49:02.462Z,32.43
2017-04-08T01:50:02.596Z,34.78
2017-04-08T01:51:03.308Z,33.73
2017-04-08T01:52:04.147Z,34.07
2017-04-08T01:53:05.156Z,34.37
2017-04-08T01:54:05.161Z,34.58
2017-04-08T01:55:05.963Z,34.83
2017-04-08T01:56:05.952Z,33.75
2017-04-08T01:57:05.640Z,35.05
2017-04-08T01:58:05.990Z,34.10
2017-04-08T01:59:05.992Z,33.80
2017-04-08T02:00:05.740Z,36.18
2017-04-08T02:01:05.765Z,33.95
2017-04-08T02:02:05.817Z,33.15
2017-04-08T02:03:06.155Z,32.92
2017-04-08T02:04:06.906Z,35.75
2017-04-08T02:05:06.957Z,33.38
2017-04-08T02:06:06.937Z,33.33
2017-04-08T02:07:06.958Z,34.30
2017-04-08T02:08:07.279Z,33.17
2017-04-08T02:09:07.612Z,36.88
2017-04-08T02:10:08.359Z,33.15
2017-04-08T02:11:08.151Z,35.12
2017-04-08T02:12:07.932Z,35.53
2017-04-08T02:13:08.068Z,33.28
2017-04-08T02:14:08.106Z,35.25
2017-04-08T02:15:07.871Z,33.62
2017-04-08T02:16:08.276Z,34.68
2017-04-08T02:17:09.095Z,33.70
2017-04-08T02:18:12.270Z,34.10
2017-04-08T02:19:12.620Z,32.92
2017-04-08T02:20:12.408Z,35.35
2017-04-08T02:21:12.623Z,34.10
2017-04-08T02:22:13.335Z,33.20
2017-04-08T02:23:21.672Z,35.13
2017-04-08T02:24:21.613Z,33.42
2017-04-08T02:25:21.647Z,34.32
2017-04-08T02:26:22.449Z,34.03
2017-04-08T02:27:22.445Z,35.72
2017-04-08T02:28:22.767Z,34.07
2017-04-08T02:29:22.783Z,34.05
2017-04-08T02:30:23.318Z,33.13
2017-04-08T02:31:24.016Z,35.80
2017-04-08T02:32:23.998Z,35.93
2017-04-08T02:33:24.328Z,34.03
2017-04-08T02:34:24.325Z,34.63
2017-04-08T02:35:24.309Z,36.80
2017-04-08T02:36:23.989Z,33.60
2017-04-08T02:37:24.456Z,34.80
2017-04-08T02:38:24.753Z,33.18
2017-04-08T02:39:24.753Z,32.32
2017-04-08T02:40:24.774Z,33.65
2017-04-08T02:41:24.514Z,34.13
2017-04-08T02:42:24.504Z,35.78
2017-04-08T02:43:25.550Z,32.83
2017-04-08T02:44:25.553Z,32.60
2017-04-08T02:45:26.336Z,33.62
2017-04-08T02:46:26.325Z,34.03
2017-04-08T02:47:26.274Z,35.72
2017-04-08T02:48:26.590Z,36.32
2017-04-08T02:49:33.746Z,33.83
2017-04-08T02:50:33.785Z,32.92
2017-04-08T02:51:34.533Z,34.92
2017-04-08T02:52:34.586Z,33.48
2017-04-08T02:53:35.001Z,34.65
2017-04-08T02:54:34.964Z,33.03
2017-04-08T02:55:34.958Z,34.38
2017-04-08T02:56:34.844Z,35.70
2017-04-08T02:57:35.544Z,35.02
2017-04-08T02:58:35.845Z,36.48
2017-04-08T02:59:35.818Z,35.50
2017-04-08T03:00:35.889Z,35.40
2017-04-08T03:01:35.927Z,35.98
2017-04-08T03:02:35.877Z,35.40
2017-04-08T03:03:36.274Z,35.33
2017-04-08T03:04:36.302Z,36.35
2017-04-08T03:05:36.390Z,35.20
2017-04-08T03:06:36.365Z,37.35
2017-04-08T03:07:36.407Z,36.55
2017-04-08T03:08:37.571Z,35.85
2017-04-08T03:09:38.241Z,33.25
2017-04-08T03:10:38.193Z,35.13
2017-04-08T03:11:38.865Z,35.95
2017-04-08T03:12:38.879Z,36.25
2017-04-08T03:13:39.221Z,34.10
2017-04-08T03:14:39.356Z,36.82
2017-04-08T03:15:40.181Z,36.22
2017-04-08T03:16:40.871Z,39.00
2017-04-08T03:17:41.056Z,36.73
2017-04-08T03:18:41.677Z,39.08
2017-04-08T03:19:41.844Z,36.17
2017-04-08T03:20:42.568Z,37.08
2017-04-08T03:21:43.320Z,38.07
2017-04-08T03:22:43.320Z,35.78
2017-04-08T03:23:43.695Z,36.47
2017-04-08T03:24:43.733Z,36.15
2017-04-08T03:25:43.780Z,36.60
2017-04-08T03:26:43.841Z,36.12
2017-04-08T03:27:43.634Z,37.47
2017-04-08T03:28:44.733Z,35.13
2017-04-08T03:29:44.688Z,38.33
2017-04-08T03:30:44.732Z,35.37
2017-04-08T03:31:44.827Z,36.33
2017-04-08T03:32:44.855Z,37.67
2017-04-08T03:33:45.164Z,38.13
2017-04-08T03:34:45.244Z,36.67
2017-04-08T03:35:45.203Z,35.95
2017-04-08T03:36:45.878Z,37.13
2017-04-08T03:37:45.638Z,38.45
2017-04-08T03:38:46.752Z,39.65
2017-04-08T03:39:47.597Z,36.88
2017-04-08T03:40:48.327Z,38.65
2017-04-08T03:41:48.384Z,36.75
2017-04-08T03:42:48.354Z,37.58
2017-04-08T03:43:48.441Z,38.83
2017-04-08T03:44:48.408Z,38.87
2017-04-08T03:45:48.425Z,37.32
2017-04-08T03:46:48.253Z,37.18
2017-04-08T03:47:49.083Z,40.15
2017-04-08T03:48:50.116Z,39.22
2017-04-08T03:49:50.112Z,37.88
2017-04-08T03:50:50.786Z,37.18
2017-04-08T03:51:50.780Z,36.95
2017-04-08T03:52:50.558Z,39.48
2017-04-08T03:53:50.822Z,38.90
2017-04-08T03:54:50.747Z,40.02
2017-04-08T03:55:50.729Z,39.23
2017-04-08T03:56:50.690Z,37.35
2017-04-08T03:58:06.595Z,40.52
2017-04-08T03:59:06.966Z,41.18
2017-04-08T04:00:07.670Z,39.78
2017-04-08T04:01:08.366Z,39.28
2017-04-08T04:02:08.114Z,39.02
2017-04-08T04:03:07.906Z,39.92
2017-04-08T04:04:08.294Z,39.77
2017-04-08T04:05:08.347Z,39.12
2017-04-08T04:06:08.312Z,40.80
2017-04-08T04:07:08.285Z,40.60
2017-04-08T04:08:08.271Z,39.50
2017-04-08T04:09:08.647Z,39.20
2017-04-08T04:10:09.339Z,38.92
2017-04-08T04:11:10.027Z,41.10
2017-04-08T04:12:10.062Z,39.27
2017-04-08T04:13:10.813Z,38.50
2017-04-08T04:14:11.119Z,38.68
2017-04-08T04:15:11.118Z,40.78
2017-04-08T04:16:11.427Z,40.17
2017-04-08T04:17:11.278Z,40.07
2017-04-08T04:18:11.352Z,39.57
2017-04-08T04:19:11.661Z,37.53
2017-04-08T04:20:12.449Z,39.25
2017-04-08T04:21:12.690Z,37.85
2017-04-08T04:22:18.331Z,39.23
2017-04-08T04:23:18.449Z,39.08
2017-04-08T04:24:18.786Z,39.42
2017-04-08T04:25:19.666Z,33.70
2017-04-08T04:26:19.730Z,40.08
2017-04-08T04:27:19.719Z,39.65
2017-04-08T04:28:20.463Z,38.77
2017-04-08T04:29:20.851Z,40.65
2017-04-08T04:30:21.601Z,39.57
2017-04-08T04:31:21.563Z,40.27
2017-04-08T04:32:21.519Z,38.32
2017-04-08T04:33:21.555Z,38.47
2017-04-08T04:34:21.888Z,38.17
2017-04-08T04:35:21.909Z,38.87
2017-04-08T04:36:21.881Z,37.80
2017-04-08T04:37:21.876Z,37.82
2017-04-08T04:38:21.639Z,38.10
2017-04-08T04:39:21.686Z,37.75
2017-04-08T04:40:22.021Z,33.45
2017-04-08T04:41:21.946Z,33.65
2017-04-08T04:42:22.379Z,37.45
2017-04-08T04:43:22.347Z,33.72
2017-04-08T04:44:22.339Z,33.83
2017-04-08T04:45:23.405Z,35.82
2017-04-08T04:46:24.071Z,28.65
2017-04-08T04:47:24.037Z,34.98
2017-04-08T04:48:24.795Z,32.98
2017-04-08T04:49:24.789Z,34.85
2017-04-08T04:50:25.191Z,31.85
2017-04-08T04:51:25.989Z,35.58
2017-04-08T04:52:26.043Z,37.42
2017-04-08T04:53:26.493Z,34.15
2017-04-08T04:54:26.493Z,34.07
2017-04-08T04:55:26.523Z,34.43
2017-04-08T04:56:26.507Z,33.53
2017-04-08T04:57:26.448Z,35.58
2017-04-08T04:58:27.136Z,35.42
2017-04-08T04:59:27.099Z,37.93
2017-04-08T05:00:27.380Z,36.17
2017-04-08T05:01:27.406Z,39.13
2017-04-08T05:02:27.387Z,35.43
2017-04-08T05:03:27.376Z,36.82
2017-04-08T05:04:27.088Z,35.87
2017-04-08T05:05:34.980Z,36.13
2017-04-08T05:06:34.942Z,35.05
2017-04-08T05:07:34.963Z,35.67
2017-04-08T05:08:35.000Z,33.33
2017-04-08T05:09:35.019Z,28.32
2017-04-08T05:10:36.043Z,30.80
2017-04-08T05:11:36.798Z,30.85
2017-04-08T05:12:36.795Z,35.22
2017-04-08T05:13:36.796Z,33.03
2017-04-08T05:14:37.640Z,35.67
2017-04-08T05:15:37.971Z,34.02
2017-04-08T05:16:38.013Z,35.28
2017-04-08T05:17:37.997Z,33.55
2017-04-08T05:18:37.946Z,36.18
2017-04-08T05:19:38.690Z,35.40
2017-04-08T05:20:39.067Z,36.72
2017-04-08T05:21:39.036Z,37.87
2017-04-08T05:22:39.208Z,39.02
2017-04-08T05:23:39.943Z,36.65
2017-04-08T05:24:40.007Z,36.07
2017-04-08T05:25:40.321Z,38.48
2017-04-08T05:26:40.305Z,38.45
2017-04-08T05:27:40.315Z,36.63
2017-04-08T05:28:40.373Z,36.65
2017-04-08T05:29:41.093Z,36.07
2017-04-08T05:30:42.106Z,37.23
2017-04-08T05:31:42.103Z,36.72
2017-04-08T05:32:42.161Z,37.25
2017-04-08T05:33:42.124Z,38.58
2017-04-08T05:34:42.690Z,37.70
2017-04-08T05:35:43.048Z,39.07
2017-04-08T05:36:43.002Z,40.98
2017-04-08T05:37:42.975Z,37.95
2017-04-08T05:38:43.696Z,36.82
2017-04-08T05:39:43.898Z,39.88
2017-04-08T05:40:44.054Z,37.83
2017-04-08T05:43:09.457Z,38.10
2017-04-08T05:44:09.498Z,36.30
2017-04-08T05:45:09.459Z,37.28
2017-04-08T05:46:09.728Z,39.38
2017-04-08T05:47:09.727Z,39.98
2017-04-08T05:48:09.729Z,38.08
2017-04-08T05:49:09.778Z,41.35
2017-04-08T05:50:10.462Z,39.45
2017-04-08T05:51:10.810Z,38.00
2017-04-08T05:52:11.611Z,37.85
2017-04-08T05:53:11.543Z,39.53
2017-04-08T05:54:12.255Z,39.48
2017-04-08T05:55:12.784Z,40.13
2017-04-08T05:56:13.171Z,39.20
2017-04-08T05:57:13.184Z,35.73
2017-04-08T05:58:13.166Z,37.60
2017-04-08T05:59:13.155Z,36.70
2017-04-08T06:00:13.076Z,37.10
2017-04-08T06:01:13.398Z,38.73
2017-04-08T06:02:13.142Z,38.58
2017-04-08T06:03:13.243Z,36.68
2017-04-08T06:04:13.990Z,39.47
2017-04-08T06:05:13.984Z,38.70
2017-04-08T06:06:14.365Z,36.43
2017-04-08T06:07:14.322Z,36.03
2017-04-08T06:08:14.318Z,37.42
2017-04-08T06:09:14.300Z,36.98
2017-04-08T06:10:14.964Z,37.70
2017-04-08T06:11:15.031Z,38.83
2017-04-08T06:12:15.746Z,35.90
2017-04-08T06:13:16.464Z,38.02
2017-04-08T06:14:17.160Z,35.02
2017-04-08T06:15:17.865Z,34.67
2017-04-08T06:16:18.104Z,36.92
2017-04-08T06:17:18.140Z,38.08
2017-04-08T06:18:18.870Z,35.15
2017-04-08T06:19:18.828Z,36.38
2017-04-08T06:20:18.892Z,35.83
2017-04-08T06:21:19.165Z,35.48
2017-04-08T06:22:19.188Z,36.77
2017-04-08T06:23:19.297Z,39.07
2017-04-08T06:24:19.979Z,36.53
2017-04-08T06:25:19.952Z,37.47
2017-04-08T06:26:20.338Z,35.17
2017-04-08T06:27:21.062Z,37.00
2017-04-08T06:28:21.825Z,34.83
2017-04-08T06:29:21.729Z,35.93
2017-04-08T06:30:21.693Z,35.10
2017-04-08T06:31:22.799Z,35.77
2017-04-08T06:32:22.799Z,35.28
2017-04-08T06:33:22.767Z,34.90
2017-04-08T06:34:22.788Z,34.13
2017-04-08T06:35:22.901Z,35.40
2017-04-08T06:36:23.249Z,35.23
2017-04-08T06:37:23.276Z,35.60
2017-04-08T06:38:23.796Z,34.80
2017-04-08T06:39:24.514Z,35.37
2017-04-08T06:40:24.941Z,35.40
2017-04-08T06:41:25.314Z,34.22
2017-04-08T06:42:25.328Z,35.70
2017-04-08T06:43:25.337Z,35.20
2017-04-08T06:44:25.391Z,35.07
2017-04-08T06:45:25.406Z,33.57
2017-04-08T06:46:25.416Z,34.68
2017-04-08T06:47:25.435Z,35.58
2017-04-08T06:48:25.634Z,32.60
2017-04-08T06:49:25.696Z,33.32
2017-04-08T06:50:26.413Z,35.42
2017-04-08T06:51:27.447Z,33.97
2017-04-08T06:52:27.414Z,32.80
2017-04-08T06:53:27.401Z,33.33
2017-04-08T06:54:27.358Z,32.53
2017-04-08T06:55:27.377Z,34.83
2017-04-08T06:56:28.430Z,34.30
2017-04-08T06:57:28.417Z,35.17
2017-04-08T06:58:48.530Z,35.40
2017-04-08T06:59:48.870Z,33.98
2017-04-08T07:00:48.598Z,36.13
2017-04-08T07:01:48.954Z,33.72
2017-04-08T07:02:50.867Z,34.57
2017-04-08T07:03:50.903Z,32.27
2017-04-08T07:04:50.881Z,32.43
2017-04-08T07:05:51.616Z,30.67
2017-04-08T07:06:52.713Z,33.10
2017-04-08T07:07:52.681Z,33.32
2017-04-08T07:08:52.661Z,31.33
2017-04-08T07:09:52.631Z,33.98
2017-04-08T07:10:52.565Z,32.20
2017-04-08T07:11:53.656Z,34.37
2017-04-08T07:12:53.650Z,32.98
2017-04-08T07:13:53.321Z,34.35
2017-04-08T07:14:53.324Z,34.90
2017-04-08T07:15:53.323Z,32.47
2017-04-08T07:16:53.789Z,32.42
2017-04-08T07:17:53.743Z,29.98
2017-04-08T07:18:54.443Z,33.00
2017-04-08T07:19:55.202Z,33.48
2017-04-08T07:20:55.222Z,32.47
2017-04-08T07:21:55.561Z,35.55
2017-04-08T07:22:55.646Z,33.80
2017-04-08T07:23:55.685Z,31.15
2017-04-08T07:24:55.716Z,32.08
2017-04-08T07:25:56.436Z,33.05
2017-04-08T07:26:57.478Z,33.77
2017-04-08T07:27:58.193Z,33.05
2017-04-08T07:28:58.240Z,33.40
2017-04-08T07:29:58.196Z,32.62
2017-04-08T07:30:58.926Z,32.42
2017-04-08T07:31:59.941Z,33.23
2017-04-08T07:33:00.635Z,33.85
2017-04-08T07:34:00.610Z,32.37
2017-04-08T07:35:00.525Z,31.32
2017-04-08T07:36:00.303Z,33.15
2017-04-08T07:37:00.673Z,33.05
2017-04-08T07:38:00.740Z,30.78
2017-04-08T07:39:00.690Z,31.43
2017-04-08T07:40:00.722Z,34.23
2017-04-08T07:41:01.439Z,32.47
2017-04-08T07:42:03.026Z,30.97
2017-04-08T07:43:03.090Z,32.52
2017-04-08T07:44:03.829Z,32.32
2017-04-08T07:45:03.765Z,33.45
2017-04-08T07:46:03.747Z,34.30
2017-04-08T07:47:04.103Z,34.22
2017-04-08T07:48:04.125Z,34.78
2017-04-08T07:49:03.851Z,35.93
2017-04-08T07:50:03.651Z,34.15
2017-04-08T07:51:04.882Z,33.27
2017-04-08T07:52:05.886Z,32.40
2017-04-08T07:53:05.907Z,31.87
2017-04-08T07:54:06.604Z,33.52
2017-04-08T07:55:06.697Z,33.85
2017-04-08T07:56:06.662Z,34.70
2017-04-08T07:57:06.936Z,32.17
2017-04-08T07:58:06.863Z,33.58
2017-04-08T07:59:07.658Z,32.93
2017-04-08T08:00:07.793Z,33.65
2017-04-08T08:01:08.549Z,31.37
2017-04-08T08:02:08.881Z,34.63
2017-04-08T08:03:08.951Z,32.65
2017-04-08T08:04:09.771Z,33.02
2017-04-08T08:05:10.520Z,32.88
2017-04-08T08:06:10.542Z,33.47
2017-04-08T08:07:10.894Z,32.45
2017-04-08T08:08:10.854Z,33.08
2017-04-08T08:09:11.624Z,31.23
2017-04-08T08:10:11.724Z,34.17
2017-04-08T08:11:11.669Z,32.45
2017-04-08T08:12:11.975Z,31.90
2017-04-08T08:13:12.668Z,30.05
2017-04-08T08:14:12.404Z,34.03
2017-04-08T08:15:12.507Z,32.83
2017-04-08T08:16:13.178Z,34.17
2017-04-08T08:17:14.262Z,32.50
2017-04-08T08:18:14.267Z,31.90
2017-04-08T08:19:14.965Z,32.92
2017-04-08T08:20:14.952Z,33.37
2017-04-08T08:21:15.037Z,32.53
2017-04-08T08:22:15.434Z,31.32
2017-04-08T08:23:15.401Z,31.33
2017-04-08T08:24:16.096Z,32.32
2017-04-08T08:25:16.044Z,31.00
2017-04-08T08:26:16.738Z,31.35
2017-04-08T08:27:17.045Z,31.00
2017-04-08T08:28:17.048Z,31.68
2017-04-08T08:29:17.025Z,30.32
2017-04-08T08:30:17.084Z,29.40
2017-04-08T08:31:17.059Z,29.67
2017-04-08T08:32:17.120Z,30.73
2017-04-08T08:33:17.128Z,31.60
2017-04-08T08:34:17.165Z,30.80
2017-04-08T08:35:17.133Z,33.40
2017-04-08T08:36:17.111Z,32.38
2017-04-08T08:37:17.422Z,31.65
2017-04-08T08:38:17.481Z,31.25
2017-04-08T08:39:17.397Z,32.10
2017-04-08T08:40:17.359Z,32.32
2017-04-08T08:41:18.135Z,33.03
2017-04-08T08:42:18.506Z,32.52
2017-04-08T08:43:19.211Z,31.67
2017-04-08T08:44:19.186Z,31.03
2017-04-08T08:45:19.160Z,30.95
2017-04-08T08:46:19.117Z,33.18
2017-04-08T08:47:19.524Z,34.65
2017-04-08T08:48:19.573Z,33.27
2017-04-08T08:49:19.584Z,30.90
2017-04-08T08:50:19.554Z,32.22
2017-04-08T08:51:19.548Z,33.58
2017-04-08T08:52:19.872Z,32.65
2017-04-08T08:53:19.708Z,32.55
2017-04-08T08:54:19.505Z,33.37
2017-04-08T08:55:20.214Z,34.90
2017-04-08T08:56:20.894Z,32.75
2017-04-08T08:57:21.217Z,31.78
2017-04-08T08:58:21.179Z,34.08
2017-04-08T08:59:21.008Z,34.72
2017-04-08T09:00:20.941Z,34.78
2017-04-08T09:01:20.999Z,32.90
2017-04-08T09:02:21.454Z,34.28
2017-04-08T09:03:21.653Z,35.10
2017-04-08T09:04:21.306Z,32.62
2017-04-08T09:05:21.247Z,35.13
2017-04-08T09:06:21.190Z,31.23
2017-04-08T09:07:21.486Z,34.17
2017-04-08T09:08:21.515Z,33.90
2017-04-08T09:09:21.516Z,21.30
2017-04-08T09:10:21.514Z,29.42
2017-04-08T09:11:21.482Z,32.63
2017-04-08T09:12:21.824Z,30.93
2017-04-08T09:13:21.841Z,32.22
2017-04-08T09:14:21.919Z,33.03
2017-04-08T09:15:21.894Z,29.20
2017-04-08T09:16:21.933Z,29.98
2017-04-08T09:17:22.273Z,31.70
2017-04-08T09:18:22.248Z,30.37
2017-04-08T09:19:22.258Z,32.92
2017-04-08T09:20:22.266Z,28.13
2017-04-08T09:21:22.213Z,25.02
2017-04-08T09:22:23.153Z,26.47
2017-04-08T09:23:23.154Z,27.98
2017-04-08T09:24:42.089Z,29.23
2017-04-08T09:25:43.301Z,23.93
2017-04-08T09:26:43.311Z,28.83
2017-04-08T09:27:43.731Z,31.13
2017-04-08T09:28:43.706Z,35.55
2017-04-08T09:29:43.677Z,27.65
2017-04-08T09:30:44.448Z,29.67
2017-04-08T09:31:44.477Z,27.63
2017-04-08T09:32:44.501Z,29.37
2017-04-08T09:33:44.545Z,28.75
2017-04-08T09:34:44.565Z,32.03
2017-04-08T09:35:44.357Z,29.95
2017-04-08T09:36:44.315Z,32.07
2017-04-08T09:37:45.427Z,29.68
2017-04-08T09:38:45.358Z,32.00
2017-04-08T09:39:46.069Z,35.95
2017-04-08T09:40:46.014Z,46.48
2017-04-08T09:41:46.012Z,62.18
2017-04-08T09:42:46.283Z,33.62
2017-04-08T09:43:46.193Z,41.47
2017-04-08T09:44:46.198Z,38.67
2017-04-08T09:45:46.213Z,33.87
2017-04-08T09:46:46.911Z,31.47
2017-04-08T09:47:47.232Z,29.53
2017-04-08T09:48:47.242Z,34.38
2017-04-08T09:50:06.766Z,36.55
2017-04-08T09:51:06.853Z,31.75
2017-04-08T09:52:06.962Z,31.95
2017-04-08T09:53:07.271Z,32.70
2017-04-08T09:54:07.262Z,32.27
2017-04-08T09:55:07.967Z,37.00
2017-04-08T09:56:08.015Z,31.62
2017-04-08T09:57:11.422Z,30.50
2017-04-08T09:58:11.770Z,32.42
2017-04-08T09:59:12.789Z,32.38
2017-04-08T10:00:12.748Z,29.30
2017-04-08T10:01:12.746Z,31.22
2017-04-08T10:02:13.512Z,32.03
2017-04-08T10:03:13.938Z,29.07
2017-04-08T10:04:13.883Z,32.27
2017-04-08T10:05:14.584Z,30.43
2017-04-08T10:06:15.122Z,32.30
2017-04-08T10:07:16.846Z,30.43
2017-04-08T10:08:17.262Z,29.28
2017-04-08T10:09:17.242Z,29.85
2017-04-08T10:10:17.251Z,30.67
2017-04-08T10:11:17.249Z,27.70
2017-04-08T10:12:17.275Z,30.32
2017-04-08T10:13:17.615Z,28.73
2017-04-08T10:14:18.335Z,30.40
2017-04-08T10:15:18.863Z,29.00
2017-04-08T10:16:19.548Z,29.62
2017-04-08T10:17:19.792Z,29.83
2017-04-08T10:18:19.975Z,30.05
2017-04-08T10:19:19.903Z,29.28
2017-04-08T10:20:21.006Z,29.95
2017-04-08T10:21:20.993Z,30.22
2017-04-08T10:22:21.050Z,30.58
2017-04-08T10:23:21.442Z,30.55
2017-04-08T10:24:21.378Z,30.25
2017-04-08T10:25:22.194Z,29.12
2017-04-08T10:26:22.858Z,32.35
2017-04-08T10:27:22.817Z,30.85
2017-04-08T10:28:23.654Z,31.90
2017-04-08T10:29:24.170Z,31.88
2017-04-08T10:30:24.839Z,32.45
2017-04-08T10:31:24.808Z,30.28
2017-04-08T10:32:24.782Z,31.28
2017-04-08T10:33:25.068Z,30.07
2017-04-08T10:34:25.036Z,31.00
2017-04-08T10:35:25.012Z,30.03
2017-04-08T10:36:25.750Z,30.57
2017-04-08T10:37:26.435Z,30.13
2017-04-08T10:38:26.773Z,31.32
2017-04-08T10:39:27.466Z,30.40
2017-04-08T10:40:27.469Z,30.72
2017-04-08T10:41:27.430Z,30.42
2017-04-08T10:42:27.355Z,31.92
2017-04-08T10:43:27.697Z,29.83
2017-04-08T10:44:27.705Z,31.47
2017-04-08T10:45:27.955Z,31.37
2017-04-08T10:46:27.859Z,31.38
2017-04-08T10:47:28.577Z,33.35
2017-04-08T10:48:29.579Z,31.37
2017-04-08T10:49:29.634Z,31.58
2017-04-08T10:50:29.597Z,30.95
2017-04-08T10:51:29.543Z,29.50
2017-04-08T10:52:29.544Z,30.30
2017-04-08T10:53:29.908Z,31.70
2017-04-08T10:54:29.817Z,31.37
2017-04-08T10:55:29.748Z,31.45
2017-04-08T10:56:30.549Z,32.10
2017-04-08T10:57:30.552Z,29.72
2017-04-08T10:58:30.893Z,29.60
2017-04-08T10:59:31.601Z,29.97
2017-04-08T11:00:31.568Z,28.38
2017-04-08T11:01:31.537Z,29.10
2017-04-08T11:02:32.064Z,29.92
2017-04-08T11:03:32.467Z,29.99
2017-04-08T11:04:33.217Z,30.26
2017-04-08T11:05:33.332Z,31.41
2017-04-08T11:06:33.343Z,29.67
2017-04-08T11:07:33.288Z,30.63
2017-04-08T11:08:34.422Z,30.68
2017-04-08T11:09:34.418Z,31.32
2017-04-08T11:10:34.396Z,31.86
2017-04-08T11:11:34.268Z,30.89
2017-04-08T11:12:34.285Z,29.77
2017-04-08T11:13:34.253Z,31.50
2017-04-08T11:14:35.363Z,30.19
2017-04-08T11:15:35.315Z,30.59
2017-04-08T11:16:35.314Z,30.70
2017-04-08T11:17:35.322Z,31.03
2017-04-08T11:18:35.330Z,30.04
2017-04-08T11:19:35.632Z,29.76
2017-04-08T11:20:36.450Z,31.03
2017-04-08T11:21:37.114Z,30.93
2017-04-08T11:22:37.075Z,29.37
2017-04-08T11:23:37.179Z,29.93
2017-04-08T11:24:37.917Z,30.60
2017-04-08T11:25:37.900Z,30.19
2017-04-08T11:26:37.910Z,29.25
2017-04-08T11:27:37.900Z,30.21
2017-04-08T11:28:37.877Z,30.23
2017-04-08T11:29:38.241Z,31.56
2017-04-08T11:30:38.944Z,28.87
2017-04-08T11:31:38.735Z,27.57
2017-04-08T11:32:38.649Z,27.84
2017-04-08T11:33:38.601Z,26.87
2017-04-08T11:34:38.974Z,29.07
2017-04-08T11:35:38.920Z,26.59
2017-04-08T11:36:38.921Z,26.90
2017-04-08T11:37:38.719Z,25.51
2017-04-08T11:38:38.688Z,25.80
2017-04-08T11:39:38.994Z,26.70
2017-04-08T11:40:39.689Z,28.19
2017-04-08T11:41:39.468Z,26.41
2017-04-08T11:42:39.471Z,28.11
2017-04-08T11:43:39.434Z,25.73
2017-04-08T11:44:39.839Z,26.76
2017-04-08T11:45:40.057Z,26.51
2017-04-08T11:46:39.918Z,26.01
2017-04-08T11:47:39.904Z,25.97
2017-04-08T11:48:40.680Z,25.30
2017-04-08T11:49:40.931Z,24.84
2017-04-08T11:50:41.628Z,26.21
2017-04-08T11:51:41.582Z,26.63
2017-04-08T11:52:41.624Z,26.44
2017-04-08T11:53:42.373Z,26.67
2017-04-08T11:54:42.668Z,27.29
2017-04-08T11:55:42.657Z,26.96
2017-04-08T11:56:42.637Z,26.71
2017-04-08T11:57:42.650Z,27.40
2017-04-08T11:58:42.621Z,25.93
2017-04-08T11:59:43.630Z,26.51
2017-04-08T12:00:43.637Z,26.16
2017-04-08T12:01:43.674Z,25.17
2017-04-08T12:02:43.707Z,27.44
2017-04-08T12:03:43.702Z,24.73
2017-04-08T12:04:44.076Z,23.87
2017-04-08T12:05:44.152Z,25.11
2017-04-08T12:06:44.130Z,25.27
2017-04-08T12:07:44.076Z,24.37
2017-04-08T12:08:44.059Z,23.10
2017-04-08T12:09:44.411Z,22.67
2017-04-08T12:10:44.405Z,21.31
2017-04-08T12:11:44.632Z,22.89
2017-04-08T12:12:44.831Z,24.20
2017-04-08T12:13:44.875Z,23.24
2017-04-08T12:14:45.915Z,23.91
2017-04-08T12:15:45.911Z,24.77
2017-04-08T12:16:46.699Z,23.61
2017-04-08T12:17:47.486Z,23.91
2017-04-08T12:18:47.360Z,23.66
2017-04-08T12:19:48.455Z,23.74
2017-04-08T12:20:48.532Z,24.33
2017-04-08T12:21:48.526Z,24.11
2017-04-08T12:22:48.614Z,21.54
2017-04-08T12:23:49.305Z,21.93
2017-04-08T12:24:49.351Z,24.56
2017-04-08T12:25:49.376Z,20.79
2017-04-08T12:26:49.343Z,18.93
2017-04-08T12:27:49.988Z,19.40
2017-04-08T12:28:50.089Z,19.59
2017-04-08T12:29:50.480Z,18.14
2017-04-08T12:30:50.447Z,20.29
2017-04-08T12:31:50.562Z,20.33
2017-04-08T12:32:50.334Z,20.50
2017-04-08T12:33:50.405Z,19.01
2017-04-08T12:34:51.525Z,19.47
2017-04-08T12:35:51.354Z,22.54
2017-04-08T12:36:51.372Z,23.86
2017-04-08T12:37:51.311Z,23.93
2017-04-08T12:38:51.375Z,21.84
2017-04-08T12:39:52.168Z,22.96
2017-04-08T12:40:52.219Z,23.63
2017-04-08T12:41:52.187Z,21.57
2017-04-08T12:42:52.192Z,21.73
2017-04-08T12:43:52.205Z,21.10
2017-04-08T12:44:53.323Z,21.80
2017-04-08T12:45:53.313Z,20.16
2017-04-08T12:46:53.411Z,20.74
2017-04-08T12:47:53.416Z,20.69
2017-04-08T12:48:53.393Z,21.53
2017-04-08T12:49:53.660Z,21.13
2017-04-08T12:50:53.649Z,20.94
2017-04-08T12:51:53.638Z,21.91
2017-04-08T12:52:53.331Z,21.59
2017-04-08T12:53:53.100Z,20.03
2017-04-08T12:55:05.305Z,21.67
2017-04-08T12:56:05.303Z,22.43
2017-04-08T12:57:05.995Z,22.59
2017-04-08T12:58:05.988Z,22.40
2017-04-08T12:59:06.008Z,21.66
2017-04-08T13:00:06.416Z,18.91